Westchester County Airport
KHPN : rendu visible

Aérodrome :











RETROUVEZ-NOUS SUR...

 
LOGIN :

S'inscrire | Disclaimer

   EN    FR    IT 

 









Légende :    VFR   VFR Marginal   IFR   IFR Intensif   IFR Très Intensif
Visi : 
Plafond : 
>= 8 km
>= 3000ft
5 à 8 km
1000 à 3000 ft
1500m à 5 km
500 à 1000 ft
800 à 1500m
200 à 500 ft
< 800m
< 200 ft
Symboles :   Orages  Brouillard  Fortes neiges  Fortes précipitations  Vent > 20 kt






- Altitude de l'aérodrome : 439 ft
- Code IATA : HPN


KHPN - Westchester County

DERNIER METAR :
  • 241356Z 26004KT 10SM CLR 07/M05 A3005 RMK AO2 SLP180 T00671050

METARs EXPIRÉS :
  • 241256Z 00000KT 10SM CLR 03/M03 A3004 RMK AO2 SLP179 T00331028
  • 241156Z 00000KT 10SM CLR M01/M06 A3004 RMK AO2 SLP179 T10111061 10061 21017 53000

TAF KHPN
Valide du 24 à 12h jusqu'au 25 à 12h UTC


241126Z 2412/2512 VRB03KT P6SM SKC
FM241600 20005KT P6SM SCT250
FM241900 15007KT P6SM BKN250
FM250000 VRB03KT P6SM OVC100
FM250900 VRB03KT P6SM SCT025 OVC050 AMD NOT SKED



MET'MAP, la Météo Aéronautique d'un coup d'oeil ! - Copyright ORBIFLY Décembre 2007 - Disclaimer

ORBIFLY MET'MAP TEAM :

Programmation & Développement : Alexandra Zaïnal
Sur une idée originale de : Baudouin d'Aumeries
Assistance à la programmation : Marc-Olivier Méhu
Soutien technique & logistique : Manuel Goepfert

Contact : metmap@orbifly.com




SOURCES & CREDITS :

   NOAA       Earth
Advisory